< < Back
Terminal Aerodrome Forecast


Current Version              Previous Versions:   1  2  3  4  5  6  7  8  9  

Terminal Aerodrome Forecast

531
FTUS42 KFFC 251700
TAFFTY
TAF
KFTY 251733Z 2518/2618 33007KT P6SM SKC
     FM260200 31004KT P6SM FEW025
     FM260900 31003KT 4SM BR FEW025
     FM261300 33005KT P6SM FEW250=

Latest METAR

544
SAUS70 KWBC 251900 RRO
MTRFTY
METAR KFTY 251853Z 30010KT 10SM CLR 23/08 A3002 RMK AO2 SLP162
T02330078


USA.gov is the U.S. government's official web portal to all federal, state and local government web resources and services.